SBI991 UHWW-UHHH
Flight info
| Callsign | SBI991 |
|---|---|
| Flight time | N/A |
| Altitude | 39000 |
| Route | DOLMA2P DOLMA B356 TD B355 ARDEL ARDEL6F |
| Aircraft | A20N/M-SDE2E3FGHIRWXY/LB1 |
Departure
| Time | 2026-05-05 17:49 |
|---|---|
| Airport | Vladivostok International Airport (UHWW) |
Arrival
| Time | N/A |
|---|---|
| Airport | Khabarovsk Novy Airport (UHHH) |
| Time | Latitude | Longitude | Altitude | Speed | Heading |
|---|---|---|---|---|---|
| 2026-05-05 17:14 | 43.40039 | 132.16764 | 52 ft | 0 kts | 150° |
| 2026-05-05 17:45 | 43.40038 | 132.16765 | 52 ft | 1 kts | 150° |
| 2026-05-05 17:45 | 43.40022 | 132.16778 | 53 ft | 5 kts | 150° |
| 2026-05-05 17:45 | 43.39980 | 132.16811 | 51 ft | 9 kts | 143° |
| 2026-05-05 17:45 | 43.39965 | 132.16853 | 52 ft | 3 kts | 86° |
| 2026-05-05 17:46 | 43.39977 | 132.16897 | 52 ft | 7 kts | 63° |
| 2026-05-05 17:46 | 43.40005 | 132.16968 | 51 ft | 10 kts | 61° |
| 2026-05-05 17:46 | 43.40048 | 132.17067 | 55 ft | 13 kts | 49° |
| 2026-05-05 17:46 | 43.40120 | 132.17070 | 52 ft | 12 kts | 327° |
| 2026-05-05 17:47 | 43.40202 | 132.17013 | 51 ft | 15 kts | 334° |
| 2026-05-05 17:47 | 43.40296 | 132.16946 | 52 ft | 16 kts | 333° |
| 2026-05-05 17:47 | 43.40379 | 132.16885 | 49 ft | 13 kts | 330° |
| 2026-05-05 17:47 | 43.40417 | 132.16854 | 50 ft | 1 kts | 319° |
| 2026-05-05 17:48 | 43.40433 | 132.16829 | 52 ft | 5 kts | 302° |
| 2026-05-05 17:48 | 43.40428 | 132.16771 | 48 ft | 8 kts | 235° |
| 2026-05-05 17:48 | 43.40404 | 132.16719 | 53 ft | 0 kts | 242° |
| 2026-05-05 17:48 | 43.40401 | 132.16712 | 53 ft | 1 kts | 242° |
| 2026-05-05 17:49 | 43.40296 | 132.16455 | 55 ft | 77 kts | 241° |
| 2026-05-05 17:49 | 43.39898 | 132.15470 | 68 ft | 153 kts | 240° |
| 2026-05-05 17:49 | 43.39341 | 132.14121 | 639 ft | 171 kts | 240° |
| 2026-05-05 17:49 | 43.38764 | 132.12668 | 1466 ft | 184 kts | 242° |
| 2026-05-05 17:50 | 43.38065 | 132.10982 | 1958 ft | 220 kts | 240° |
| 2026-05-05 17:50 | 43.37289 | 132.09088 | 2918 ft | 230 kts | 241° |
| 2026-05-05 17:50 | 43.36516 | 132.07157 | 4142 ft | 232 kts | 241° |
| 2026-05-05 17:50 | 43.35733 | 132.05200 | 5134 ft | 237 kts | 241° |
| 2026-05-05 17:51 | 43.34928 | 132.03198 | 6020 ft | 242 kts | 241° |
| 2026-05-05 17:51 | 43.34292 | 132.01059 | 7017 ft | 244 kts | 262° |
| 2026-05-05 17:51 | 43.34445 | 131.98774 | 7963 ft | 248 kts | 291° |
| 2026-05-05 17:51 | 43.35420 | 131.96830 | 8870 ft | 252 kts | 320° |
| 2026-05-05 17:52 | 43.36992 | 131.95763 | 9774 ft | 257 kts | 349° |
| 2026-05-05 17:52 | 43.38775 | 131.95869 | 10652 ft | 261 kts | 18° |
| 2026-05-05 17:52 | 43.40340 | 131.97144 | 11520 ft | 266 kts | 44° |
| 2026-05-05 17:52 | 43.41556 | 131.99155 | 12079 ft | 285 kts | 54° |
| 2026-05-05 17:53 | 43.42733 | 132.01497 | 12434 ft | 310 kts | 55° |
| 2026-05-05 17:53 | 43.44045 | 132.03989 | 12739 ft | 334 kts | 53° |
| 2026-05-05 17:53 | 43.45010 | 132.05694 | 12956 ft | 348 kts | 51° |
| 2026-05-05 17:53 | 43.47079 | 132.09129 | 13964 ft | 354 kts | 50° |
| 2026-05-05 17:54 | 43.48694 | 132.11722 | 14757 ft | 359 kts | 49° |
| 2026-05-05 17:54 | 43.50335 | 132.14339 | 15508 ft | 364 kts | 49° |
| 2026-05-05 17:54 | 43.52002 | 132.16993 | 16251 ft | 368 kts | 49° |
| 2026-05-05 17:54 | 43.53683 | 132.19675 | 17000 ft | 372 kts | 49° |
| 2026-05-05 17:55 | 43.55382 | 132.22391 | 17693 ft | 376 kts | 49° |
| 2026-05-05 17:55 | 43.56517 | 132.24208 | 18159 ft | 379 kts | 49° |
| 2026-05-05 17:55 | 43.58243 | 132.26976 | 18835 ft | 383 kts | 49° |
| 2026-05-05 17:55 | 43.59986 | 132.29773 | 19483 ft | 387 kts | 49° |
| 2026-05-05 17:56 | 43.61746 | 132.32602 | 20137 ft | 391 kts | 49° |
| 2026-05-05 17:56 | 43.64104 | 132.36397 | 20968 ft | 396 kts | 49° |
| 2026-05-05 17:56 | 43.65899 | 132.39291 | 21592 ft | 399 kts | 49° |
| 2026-05-05 17:56 | 43.67123 | 132.41265 | 21979 ft | 402 kts | 49° |
| 2026-05-05 17:57 | 43.68948 | 132.44212 | 22530 ft | 406 kts | 49° |
| 2026-05-05 17:57 | 43.70792 | 132.47194 | 23126 ft | 409 kts | 49° |
| 2026-05-05 17:57 | 43.72624 | 132.50158 | 23618 ft | 414 kts | 49° |
| 2026-05-05 17:57 | 43.74501 | 132.53197 | 24189 ft | 417 kts | 49° |
| 2026-05-05 17:58 | 43.76386 | 132.56254 | 24746 ft | 419 kts | 49° |
| 2026-05-05 17:58 | 43.78288 | 132.59340 | 25208 ft | 424 kts | 49° |
| 2026-05-05 17:58 | 43.80215 | 132.62446 | 25685 ft | 427 kts | 47° |
| 2026-05-05 17:58 | 43.82352 | 132.65305 | 26228 ft | 428 kts | 41° |
| 2026-05-05 17:59 | 43.84600 | 132.68051 | 26633 ft | 433 kts | 41° |
| 2026-05-05 17:59 | 43.86833 | 132.70793 | 27033 ft | 436 kts | 41° |
| 2026-05-05 17:59 | 43.89108 | 132.73596 | 27474 ft | 439 kts | 41° |
| 2026-05-05 17:59 | 43.91393 | 132.76416 | 27927 ft | 441 kts | 41° |
| 2026-05-05 18:00 | 43.93685 | 132.79248 | 28347 ft | 443 kts | 41° |
| 2026-05-05 18:00 | 43.95994 | 132.82103 | 28682 ft | 446 kts | 41° |
| 2026-05-05 18:00 | 43.98319 | 132.84979 | 29008 ft | 450 kts | 41° |
| 2026-05-05 18:00 | 44.00658 | 132.87877 | 29384 ft | 451 kts | 41° |
| 2026-05-05 18:01 | 44.03007 | 132.90790 | 29726 ft | 454 kts | 41° |
| 2026-05-05 18:01 | 44.05365 | 132.93717 | 30091 ft | 455 kts | 41° |
| 2026-05-05 18:01 | 44.07698 | 132.96617 | 30436 ft | 458 kts | 41° |
| 2026-05-05 18:01 | 44.10079 | 132.99580 | 30762 ft | 460 kts | 41° |
| 2026-05-05 18:02 | 44.12465 | 133.02553 | 31118 ft | 462 kts | 41° |
| 2026-05-05 18:02 | 44.14861 | 133.05541 | 31505 ft | 462 kts | 41° |
| 2026-05-05 18:02 | 44.17251 | 133.08525 | 31939 ft | 461 kts | 41° |
| 2026-05-05 18:02 | 44.19638 | 133.11499 | 32352 ft | 460 kts | 40° |
| 2026-05-05 18:03 | 44.22164 | 133.14224 | 32769 ft | 459 kts | 36° |
| 2026-05-05 18:03 | 44.24736 | 133.16854 | 33149 ft | 458 kts | 36° |
| 2026-05-05 18:03 | 44.27300 | 133.19490 | 33525 ft | 457 kts | 36° |
| 2026-05-05 18:03 | 44.29821 | 133.22089 | 33894 ft | 457 kts | 36° |
| 2026-05-05 18:04 | 44.32373 | 133.24724 | 34241 ft | 456 kts | 36° |
| 2026-05-05 18:04 | 44.34921 | 133.27356 | 34560 ft | 456 kts | 36° |
| 2026-05-05 18:04 | 44.37471 | 133.29994 | 34845 ft | 456 kts | 36° |
| 2026-05-05 18:04 | 44.40018 | 133.32631 | 35182 ft | 455 kts | 36° |
| 2026-05-05 18:05 | 44.42559 | 133.35264 | 35481 ft | 455 kts | 36° |
| 2026-05-05 18:05 | 44.45104 | 133.37904 | 35761 ft | 454 kts | 36° |
| 2026-05-05 18:05 | 44.47633 | 133.40531 | 36093 ft | 453 kts | 36° |
| 2026-05-05 18:05 | 44.50159 | 133.43158 | 36371 ft | 452 kts | 36° |
| 2026-05-05 18:06 | 44.52651 | 133.45751 | 36609 ft | 452 kts | 36° |
| 2026-05-05 18:06 | 44.54358 | 133.47530 | 36773 ft | 452 kts | 36° |
| 2026-05-05 18:06 | 44.57696 | 133.51012 | 37101 ft | 452 kts | 36° |
| 2026-05-05 18:06 | 44.60215 | 133.53642 | 37317 ft | 451 kts | 36° |
| 2026-05-05 18:07 | 44.62735 | 133.56277 | 37535 ft | 451 kts | 36° |
| 2026-05-05 18:07 | 44.65251 | 133.58911 | 37743 ft | 451 kts | 36° |
| 2026-05-05 18:07 | 44.67767 | 133.61547 | 37913 ft | 452 kts | 36° |
| 2026-05-05 18:07 | 44.70286 | 133.64189 | 38108 ft | 452 kts | 37° |
| 2026-05-05 18:08 | 44.72769 | 133.66797 | 38308 ft | 451 kts | 37° |
| 2026-05-05 18:08 | 44.75283 | 133.69440 | 38490 ft | 451 kts | 37° |
| 2026-05-05 18:08 | 44.77798 | 133.72087 | 38670 ft | 451 kts | 37° |
| 2026-05-05 18:08 | 44.80309 | 133.74733 | 38818 ft | 451 kts | 37° |
| 2026-05-05 18:09 | 44.82825 | 133.77387 | 38964 ft | 452 kts | 37° |
| 2026-05-05 18:09 | 44.87850 | 133.82697 | 39003 ft | 451 kts | 37° |
| 2026-05-05 18:10 | 44.92860 | 133.87990 | 39003 ft | 450 kts | 36° |
| 2026-05-05 18:10 | 44.97947 | 133.93054 | 39004 ft | 450 kts | 34° |
| 2026-05-05 18:11 | 45.03086 | 133.98120 | 38999 ft | 450 kts | 35° |
| 2026-05-05 18:11 | 45.08213 | 134.03225 | 39002 ft | 451 kts | 35° |
| 2026-05-05 18:12 | 45.13331 | 134.08348 | 38994 ft | 451 kts | 35° |
| 2026-05-05 18:12 | 45.18414 | 134.13450 | 39001 ft | 451 kts | 35° |
| 2026-05-05 18:13 | 45.23530 | 134.18594 | 39002 ft | 451 kts | 35° |
| 2026-05-05 18:13 | 45.28642 | 134.23747 | 39005 ft | 451 kts | 35° |
| 2026-05-05 18:14 | 45.33757 | 134.28913 | 39005 ft | 451 kts | 35° |
| 2026-05-05 18:14 | 45.38835 | 134.34055 | 39002 ft | 451 kts | 35° |
| 2026-05-05 18:15 | 45.43943 | 134.39238 | 38998 ft | 451 kts | 35° |
| 2026-05-05 18:15 | 45.49053 | 134.44435 | 39005 ft | 451 kts | 35° |
| 2026-05-05 18:16 | 45.54160 | 134.49640 | 38998 ft | 451 kts | 35° |
| 2026-05-05 18:16 | 45.59230 | 134.54821 | 39005 ft | 451 kts | 35° |
| 2026-05-05 18:17 | 45.64332 | 134.60045 | 39004 ft | 451 kts | 35° |
| 2026-05-05 18:17 | 45.69430 | 134.65278 | 39000 ft | 451 kts | 35° |
| 2026-05-05 18:18 | 45.74529 | 134.70523 | 39005 ft | 451 kts | 36° |
| 2026-05-05 18:18 | 45.79590 | 134.75741 | 39006 ft | 451 kts | 36° |
| 2026-05-05 18:19 | 45.84680 | 134.81000 | 39002 ft | 451 kts | 35° |
| 2026-05-05 18:19 | 45.90194 | 134.85241 | 38999 ft | 450 kts | 20° |
| 2026-05-05 18:20 | 45.96250 | 134.87395 | 38998 ft | 449 kts | 6° |
| 2026-05-05 18:20 | 46.02430 | 134.88217 | 38991 ft | 449 kts | 5° |
| 2026-05-05 18:21 | 46.08648 | 134.89060 | 38998 ft | 449 kts | 5° |
| 2026-05-05 18:21 | 46.14873 | 134.89895 | 38995 ft | 449 kts | 5° |
| 2026-05-05 18:22 | 46.21099 | 134.90727 | 38991 ft | 449 kts | 5° |
| 2026-05-05 18:22 | 46.27327 | 134.91560 | 39001 ft | 449 kts | 5° |
| 2026-05-05 18:23 | 46.33513 | 134.92389 | 39001 ft | 450 kts | 5° |
| 2026-05-05 18:23 | 46.39745 | 134.93227 | 39002 ft | 450 kts | 5° |
| 2026-05-05 18:24 | 46.45980 | 134.94067 | 39006 ft | 450 kts | 5° |
| 2026-05-05 18:24 | 46.52216 | 134.94909 | 38999 ft | 450 kts | 5° |
| 2026-05-05 18:25 | 46.58409 | 134.95747 | 39006 ft | 450 kts | 5° |
| 2026-05-05 18:25 | 46.64650 | 134.96593 | 39008 ft | 450 kts | 5° |
| 2026-05-05 18:26 | 46.70891 | 134.97442 | 39002 ft | 450 kts | 5° |
| 2026-05-05 18:26 | 46.77129 | 134.98292 | 39003 ft | 450 kts | 5° |
| 2026-05-05 18:27 | 46.83269 | 134.99688 | 39008 ft | 450 kts | 13° |
| 2026-05-05 18:27 | 46.89283 | 135.02268 | 39002 ft | 450 kts | 16° |
| 2026-05-05 18:28 | 46.98282 | 135.06213 | 39004 ft | 450 kts | 17° |
| 2026-05-05 18:28 | 47.04275 | 135.08871 | 39000 ft | 450 kts | 17° |
| 2026-05-05 18:29 | 47.10230 | 135.11526 | 38995 ft | 450 kts | 17° |
| 2026-05-05 18:29 | 47.16220 | 135.14202 | 38993 ft | 450 kts | 17° |
| 2026-05-05 18:30 | 47.22214 | 135.16887 | 38898 ft | 451 kts | 17° |
| 2026-05-05 18:30 | 47.25218 | 135.18235 | 38644 ft | 451 kts | 17° |
| 2026-05-05 18:30 | 47.28225 | 135.19586 | 38103 ft | 453 kts | 17° |
| 2026-05-05 18:31 | 47.31253 | 135.20947 | 37345 ft | 456 kts | 17° |
| 2026-05-05 18:31 | 47.34245 | 135.22294 | 36700 ft | 455 kts | 17° |
| 2026-05-05 18:31 | 47.37270 | 135.23658 | 36015 ft | 454 kts | 17° |
| 2026-05-05 18:31 | 47.40298 | 135.25025 | 35237 ft | 455 kts | 17° |
| 2026-05-05 18:32 | 47.43328 | 135.26394 | 34489 ft | 455 kts | 17° |
| 2026-05-05 18:32 | 47.46359 | 135.27765 | 33705 ft | 456 kts | 17° |
| 2026-05-05 18:32 | 47.49394 | 135.29140 | 32901 ft | 457 kts | 17° |
| 2026-05-05 18:32 | 47.52432 | 135.30518 | 32112 ft | 457 kts | 17° |
| 2026-05-05 18:33 | 47.55469 | 135.31897 | 31247 ft | 458 kts | 17° |
| 2026-05-05 18:33 | 47.58516 | 135.33282 | 30436 ft | 457 kts | 17° |
| 2026-05-05 18:33 | 47.61512 | 135.34646 | 29727 ft | 455 kts | 17° |
| 2026-05-05 18:33 | 47.64509 | 135.36012 | 29194 ft | 448 kts | 17° |
| 2026-05-05 18:34 | 47.67467 | 135.37361 | 28608 ft | 442 kts | 17° |
| 2026-05-05 18:34 | 47.70392 | 135.38698 | 28025 ft | 437 kts | 17° |
| 2026-05-05 18:34 | 47.73278 | 135.40018 | 27447 ft | 431 kts | 17° |
| 2026-05-05 18:34 | 47.76129 | 135.41323 | 26879 ft | 426 kts | 17° |
| 2026-05-05 18:35 | 47.78947 | 135.42615 | 26309 ft | 422 kts | 17° |
| 2026-05-05 18:35 | 47.81735 | 135.43894 | 25753 ft | 417 kts | 17° |
| 2026-05-05 18:35 | 47.84451 | 135.45142 | 25201 ft | 412 kts | 17° |
| 2026-05-05 18:35 | 47.87176 | 135.46395 | 24648 ft | 407 kts | 17° |
| 2026-05-05 18:36 | 47.89871 | 135.47637 | 24104 ft | 403 kts | 17° |
| 2026-05-05 18:36 | 47.92534 | 135.48864 | 23550 ft | 399 kts | 17° |
| 2026-05-05 18:36 | 47.95169 | 135.50080 | 23007 ft | 394 kts | 17° |
| 2026-05-05 18:36 | 47.97774 | 135.51284 | 22467 ft | 390 kts | 17° |
| 2026-05-05 18:37 | 48.00355 | 135.52477 | 21930 ft | 386 kts | 17° |
| 2026-05-05 18:37 | 48.02911 | 135.53660 | 21395 ft | 382 kts | 17° |
| 2026-05-05 18:37 | 48.05405 | 135.54816 | 20873 ft | 379 kts | 17° |
| 2026-05-05 18:37 | 48.07909 | 135.55977 | 20343 ft | 375 kts | 17° |
| 2026-05-05 18:38 | 48.10389 | 135.57129 | 19823 ft | 371 kts | 17° |
| 2026-05-05 18:38 | 48.12844 | 135.58270 | 19300 ft | 368 kts | 17° |
| 2026-05-05 18:38 | 48.15278 | 135.59402 | 18782 ft | 365 kts | 17° |
| 2026-05-05 18:38 | 48.17692 | 135.60526 | 18266 ft | 361 kts | 17° |
| 2026-05-05 18:39 | 48.20081 | 135.61640 | 17754 ft | 358 kts | 17° |
| 2026-05-05 18:39 | 48.22453 | 135.62747 | 17232 ft | 355 kts | 17° |
| 2026-05-05 18:39 | 48.24774 | 135.63831 | 16745 ft | 353 kts | 17° |
| 2026-05-05 18:39 | 48.27105 | 135.64921 | 16236 ft | 350 kts | 17° |
| 2026-05-05 18:40 | 48.29417 | 135.66003 | 15742 ft | 347 kts | 17° |
| 2026-05-05 18:40 | 48.31714 | 135.67079 | 15245 ft | 344 kts | 17° |
| 2026-05-05 18:40 | 48.33990 | 135.68146 | 14750 ft | 341 kts | 17° |
| 2026-05-05 18:40 | 48.36249 | 135.69206 | 14271 ft | 339 kts | 17° |
| 2026-05-05 18:41 | 48.38487 | 135.70257 | 13781 ft | 336 kts | 17° |
| 2026-05-05 18:41 | 48.40709 | 135.71371 | 13135 ft | 338 kts | 18° |
| 2026-05-05 18:41 | 48.42939 | 135.72427 | 12764 ft | 347 kts | 17° |
| 2026-05-05 18:41 | 48.45294 | 135.73509 | 12304 ft | 359 kts | 17° |
| 2026-05-05 18:42 | 48.47700 | 135.74617 | 11793 ft | 362 kts | 17° |
| 2026-05-05 18:42 | 48.50071 | 135.75722 | 11597 ft | 350 kts | 17° |
| 2026-05-05 18:42 | 48.52345 | 135.76790 | 11450 ft | 335 kts | 17° |
| 2026-05-05 18:42 | 48.54521 | 135.77817 | 11299 ft | 321 kts | 17° |
| 2026-05-05 18:43 | 48.56603 | 135.78802 | 11168 ft | 307 kts | 17° |
| 2026-05-05 18:43 | 48.58593 | 135.79745 | 11054 ft | 293 kts | 17° |
| 2026-05-05 18:43 | 48.60474 | 135.80637 | 10937 ft | 281 kts | 17° |
| 2026-05-05 18:43 | 48.62296 | 135.81502 | 10833 ft | 268 kts | 17° |
| 2026-05-05 18:44 | 48.64041 | 135.82331 | 10685 ft | 259 kts | 17° |
| 2026-05-05 18:44 | 48.65749 | 135.83142 | 10364 ft | 256 kts | 17° |
| 2026-05-05 18:44 | 48.67480 | 135.83735 | 10007 ft | 255 kts | 5° |
| 2026-05-05 18:44 | 48.69247 | 135.83824 | 9663 ft | 254 kts | 0° |
| 2026-05-05 18:45 | 48.71010 | 135.83858 | 9330 ft | 252 kts | 0° |
| 2026-05-05 18:45 | 48.72761 | 135.83905 | 8994 ft | 251 kts | 0° |
| 2026-05-05 18:45 | 48.74504 | 135.83955 | 8661 ft | 250 kts | 0° |
| 2026-05-05 18:45 | 48.76240 | 135.84007 | 8336 ft | 249 kts | 0° |
| 2026-05-05 18:46 | 48.77943 | 135.84056 | 8013 ft | 248 kts | 0° |
| 2026-05-05 18:46 | 48.79662 | 135.84105 | 7697 ft | 246 kts | 0° |
| 2026-05-05 18:46 | 48.81369 | 135.84137 | 7377 ft | 245 kts | 356° |
| 2026-05-05 18:46 | 48.83010 | 135.83574 | 7142 ft | 238 kts | 335° |
| 2026-05-05 18:47 | 48.84442 | 135.82347 | 7055 ft | 239 kts | 328° |
| 2026-05-05 18:47 | 48.85869 | 135.81060 | 6995 ft | 237 kts | 329° |
| 2026-05-05 18:47 | 48.87291 | 135.79795 | 6997 ft | 237 kts | 329° |
| 2026-05-05 18:47 | 48.88719 | 135.78528 | 6997 ft | 238 kts | 329° |
| 2026-05-05 18:48 | 48.90126 | 135.77277 | 6998 ft | 238 kts | 329° |
| 2026-05-05 18:48 | 48.91511 | 135.75916 | 6994 ft | 237 kts | 319° |
| 2026-05-05 18:48 | 48.92612 | 135.74058 | 7004 ft | 237 kts | 303° |
| 2026-05-05 18:48 | 48.93496 | 135.71938 | 7000 ft | 237 kts | 302° |
| 2026-05-05 18:49 | 48.94387 | 135.69831 | 7003 ft | 237 kts | 302° |
| 2026-05-05 18:49 | 48.95284 | 135.67725 | 7000 ft | 237 kts | 302° |
| 2026-05-05 18:49 | 48.96183 | 135.65621 | 7003 ft | 237 kts | 302° |
| 2026-05-05 18:49 | 48.97082 | 135.63515 | 6998 ft | 237 kts | 302° |
| 2026-05-05 18:50 | 48.97849 | 135.61343 | 7001 ft | 237 kts | 290° |
| 2026-05-05 18:50 | 48.98209 | 135.58908 | 7005 ft | 237 kts | 276° |
| 2026-05-05 18:50 | 48.98395 | 135.56416 | 7002 ft | 237 kts | 276° |
| 2026-05-05 18:50 | 48.98593 | 135.53929 | 6999 ft | 237 kts | 277° |
| 2026-05-05 18:51 | 48.98799 | 135.51440 | 6977 ft | 236 kts | 277° |
| 2026-05-05 18:51 | 48.98692 | 135.48975 | 7006 ft | 237 kts | 250° |
| 2026-05-05 18:51 | 48.97775 | 135.46931 | 7001 ft | 238 kts | 219° |
| 2026-05-05 18:51 | 48.96285 | 135.45878 | 6869 ft | 238 kts | 188° |
| 2026-05-05 18:52 | 48.94664 | 135.46027 | 6762 ft | 239 kts | 170° |
| 2026-05-05 18:52 | 48.93035 | 135.46515 | 6650 ft | 238 kts | 168° |
| 2026-05-05 18:52 | 48.91416 | 135.47022 | 6536 ft | 237 kts | 169° |
| 2026-05-05 18:52 | 48.89795 | 135.47500 | 6425 ft | 237 kts | 169° |
| 2026-05-05 18:53 | 48.88175 | 135.47946 | 6310 ft | 236 kts | 170° |
| 2026-05-05 18:53 | 48.86556 | 135.48372 | 6194 ft | 236 kts | 171° |
| 2026-05-05 18:53 | 48.84936 | 135.48788 | 6078 ft | 236 kts | 171° |
| 2026-05-05 18:53 | 48.83321 | 135.49200 | 5975 ft | 235 kts | 171° |
| 2026-05-05 18:54 | 48.81731 | 135.49605 | 5868 ft | 234 kts | 171° |
| 2026-05-05 18:54 | 48.80128 | 135.50014 | 5746 ft | 234 kts | 171° |
| 2026-05-05 18:54 | 48.78518 | 135.50425 | 5641 ft | 234 kts | 171° |
| 2026-05-05 18:54 | 48.76905 | 135.50744 | 5520 ft | 233 kts | 183° |
| 2026-05-05 18:55 | 48.75386 | 135.50026 | 5436 ft | 229 kts | 215° |
| 2026-05-05 18:55 | 48.74227 | 135.48461 | 5366 ft | 218 kts | 224° |
| 2026-05-05 18:55 | 48.73172 | 135.46896 | 5278 ft | 207 kts | 225° |
| 2026-05-05 18:55 | 48.72172 | 135.45410 | 5165 ft | 197 kts | 225° |
| 2026-05-05 18:56 | 48.71209 | 135.43992 | 4932 ft | 195 kts | 224° |
| 2026-05-05 18:56 | 48.70233 | 135.42569 | 4665 ft | 195 kts | 224° |
| 2026-05-05 18:56 | 48.69257 | 135.41153 | 4409 ft | 194 kts | 224° |
| 2026-05-05 18:56 | 48.68296 | 135.39766 | 4288 ft | 191 kts | 224° |
| 2026-05-05 18:57 | 48.67355 | 135.38447 | 4283 ft | 172 kts | 223° |
| 2026-05-05 18:57 | 48.66537 | 135.37334 | 4141 ft | 147 kts | 222° |
| 2026-05-05 18:57 | 48.65812 | 135.36354 | 3917 ft | 136 kts | 223° |
| 2026-05-05 18:57 | 48.65116 | 135.35407 | 3604 ft | 134 kts | 223° |
| 2026-05-05 18:58 | 48.64435 | 135.34478 | 3291 ft | 133 kts | 223° |
| 2026-05-05 18:58 | 48.63749 | 135.33538 | 2975 ft | 133 kts | 223° |
| 2026-05-05 18:58 | 48.63066 | 135.32602 | 2666 ft | 132 kts | 223° |
| 2026-05-05 18:58 | 48.62387 | 135.31670 | 2349 ft | 132 kts | 223° |
| 2026-05-05 18:59 | 48.61717 | 135.30752 | 2094 ft | 128 kts | 223° |
| 2026-05-05 18:59 | 48.61043 | 135.29828 | 1975 ft | 131 kts | 223° |
| 2026-05-05 18:59 | 48.60366 | 135.28901 | 1887 ft | 131 kts | 223° |
| 2026-05-05 18:59 | 48.59691 | 135.27976 | 1812 ft | 131 kts | 223° |
| 2026-05-05 19:00 | 48.59025 | 135.27064 | 1733 ft | 131 kts | 223° |
| 2026-05-05 19:00 | 48.58347 | 135.26137 | 1577 ft | 131 kts | 223° |
| 2026-05-05 19:00 | 48.57673 | 135.25214 | 1373 ft | 130 kts | 223° |
| 2026-05-05 19:00 | 48.56996 | 135.24314 | 1176 ft | 130 kts | 222° |
| 2026-05-05 19:01 | 48.56326 | 135.23408 | 1017 ft | 129 kts | 223° |
| 2026-05-05 19:01 | 48.55661 | 135.22487 | 753 ft | 128 kts | 223° |
| 2026-05-05 19:01 | 48.55002 | 135.21572 | 555 ft | 129 kts | 223° |
| 2026-05-05 19:01 | 48.54343 | 135.20682 | 365 ft | 128 kts | 222° |
| 2026-05-05 19:02 | 48.53681 | 135.19782 | 251 ft | 128 kts | 222° |
| 2026-05-05 19:02 | 48.53032 | 135.18877 | 242 ft | 128 kts | 224° |